createdAt,value
2019-03-22T00:00:27.999Z,63.80
2019-03-22T00:05:30.873Z,65.21
2019-03-22T00:10:33.668Z,65.14
2019-03-22T00:15:36.348Z,65.14
2019-03-22T00:20:38.975Z,65.65
2019-03-22T00:25:41.580Z,66.22
2019-03-22T00:30:44.216Z,65.85
2019-03-22T00:35:46.876Z,66.17
2019-03-22T00:40:49.668Z,66.85
2019-03-22T00:45:52.358Z,66.89
2019-03-22T00:50:55.067Z,66.56
2019-03-22T00:55:57.666Z,67.37
2019-03-22T01:01:00.665Z,67.71
2019-03-22T01:06:03.420Z,67.56
2019-03-22T01:11:06.100Z,67.87
2019-03-22T01:16:08.987Z,68.91
2019-03-22T01:21:11.821Z,68.36
2019-03-22T01:26:14.525Z,69.22
2019-03-22T01:31:17.211Z,69.24
2019-03-22T01:36:19.808Z,69.74
2019-03-22T01:41:22.462Z,70.17
2019-03-22T01:46:25.140Z,69.59
2019-03-22T01:51:27.823Z,69.52
2019-03-22T01:56:30.771Z,69.84
2019-03-22T02:01:33.709Z,69.58
2019-03-22T02:06:36.443Z,70.47
2019-03-22T02:11:39.025Z,70.87
2019-03-22T02:16:41.668Z,71.15
2019-03-22T02:21:44.504Z,71.52
2019-03-22T02:26:47.138Z,70.84
2019-03-22T02:31:49.880Z,71.67
2019-03-22T02:36:52.473Z,70.84
2019-03-22T02:41:55.061Z,71.31
2019-03-22T02:46:57.844Z,72.25
2019-03-22T02:52:00.420Z,72.18
2019-03-22T02:57:03.217Z,72.13
2019-03-22T03:02:06.148Z,72.45
2019-03-22T03:07:08.769Z,71.73
2019-03-22T03:12:11.383Z,71.79
2019-03-22T03:17:14.009Z,72.43
2019-03-22T03:22:16.635Z,72.98
2019-03-22T03:27:19.202Z,72.79
2019-03-22T03:32:21.794Z,72.59
2019-03-22T03:37:24.837Z,71.89
2019-03-22T03:42:27.437Z,72.54
2019-03-22T03:47:30.067Z,72.82
2019-03-22T03:52:32.633Z,73.62
2019-03-22T03:57:35.416Z,73.83
2019-03-22T04:02:38.522Z,74.02
2019-03-22T04:07:41.184Z,74.57
2019-03-22T04:12:44.136Z,73.32
2019-03-22T04:17:46.716Z,73.68
2019-03-22T04:22:50.856Z,74.79
2019-03-22T04:27:53.449Z,74.25
2019-03-22T04:32:56.109Z,74.25
2019-03-22T04:37:58.730Z,74.92
2019-03-22T04:43:01.366Z,75.29
2019-03-22T04:48:16.652Z,75.19
2019-03-22T04:53:22.316Z,75.25
2019-03-22T04:58:26.783Z,75.46
2019-03-22T05:03:31.057Z,75.45
2019-03-22T05:08:37.380Z,75.98
2019-03-22T05:13:43.073Z,76.19
2019-03-22T05:18:48.266Z,76.13
2019-03-22T05:23:52.867Z,75.51
2019-03-22T05:28:55.882Z,75.05
2019-03-22T05:33:58.548Z,75.39
2019-03-22T05:39:01.207Z,75.67
2019-03-22T05:44:03.819Z,75.99
2019-03-22T05:49:06.742Z,76.13
2019-03-22T05:54:09.931Z,75.89
2019-03-22T05:59:12.684Z,75.73
2019-03-22T06:04:15.718Z,75.27
2019-03-22T06:09:18.542Z,74.71
2019-03-22T06:14:21.204Z,74.47
2019-03-22T06:19:23.867Z,74.57
2019-03-22T06:24:26.498Z,74.10
2019-03-22T06:29:29.158Z,74.46
2019-03-22T06:34:31.746Z,74.61
2019-03-22T06:39:34.373Z,74.42
2019-03-22T06:44:37.029Z,73.97
2019-03-22T06:49:39.743Z,74.12
2019-03-22T06:54:42.398Z,73.76
2019-03-22T06:59:45.048Z,73.83
2019-03-22T07:04:48.852Z,73.17
2019-03-22T07:09:51.469Z,72.28
2019-03-22T07:14:54.196Z,72.56
2019-03-22T07:19:56.793Z,72.12
2019-03-22T07:24:59.462Z,71.98
2019-03-22T07:30:02.124Z,71.05
2019-03-22T07:35:04.877Z,70.51
2019-03-22T07:40:07.807Z,70.40
2019-03-22T07:45:10.600Z,70.76
2019-03-22T07:50:13.570Z,70.20
2019-03-22T07:55:16.216Z,69.29
2019-03-22T08:00:30.297Z,68.75
2019-03-22T08:05:23.557Z,68.43
2019-03-22T08:10:26.131Z,67.82
2019-03-22T08:15:32.676Z,67.17
2019-03-22T08:20:35.296Z,66.08
2019-03-22T08:25:37.983Z,65.75
2019-03-22T08:30:43.258Z,65.28
2019-03-22T08:35:45.568Z,64.75
2019-03-22T08:40:48.172Z,63.85
2019-03-22T08:45:50.774Z,63.59
2019-03-22T08:50:53.513Z,63.43
2019-03-22T08:55:56.075Z,62.88
2019-03-22T09:00:59.092Z,61.46
2019-03-22T09:06:01.871Z,60.86
2019-03-22T09:11:04.607Z,59.30
2019-03-22T09:16:07.283Z,59.30
2019-03-22T09:21:10.227Z,58.54
2019-03-22T09:26:12.883Z,57.61
2019-03-22T09:31:15.893Z,56.93
2019-03-22T09:36:18.727Z,54.27
2019-03-22T09:41:21.495Z,53.45
2019-03-22T09:46:24.093Z,52.95
2019-03-22T09:51:26.744Z,52.84
2019-03-22T09:56:29.456Z,52.48
2019-03-22T10:01:32.123Z,51.29
2019-03-22T10:06:34.746Z,50.47
2019-03-22T10:11:37.503Z,49.35
2019-03-22T10:16:40.126Z,49.15
2019-03-22T10:21:42.783Z,46.96
2019-03-22T10:26:45.642Z,48.86
2019-03-22T10:31:48.539Z,47.44
2019-03-22T10:36:51.217Z,46.86
2019-03-22T10:41:53.960Z,46.07
2019-03-22T10:46:56.747Z,44.09
2019-03-22T10:51:59.444Z,46.44
2019-03-22T10:57:02.120Z,46.67
2019-03-22T11:02:07.658Z,46.05
2019-03-22T11:07:09.346Z,43.88
2019-03-22T11:12:12.582Z,43.58
2019-03-22T11:17:15.321Z,43.59
2019-03-22T11:22:17.927Z,42.71
2019-03-22T11:27:22.072Z,42.05
2019-03-22T11:32:24.821Z,39.38
2019-03-22T11:37:27.695Z,40.52
2019-03-22T11:42:30.420Z,40.98
2019-03-22T11:47:33.352Z,40.17
2019-03-22T11:52:36.044Z,39.71
2019-03-22T11:57:38.816Z,38.54
2019-03-22T12:02:41.467Z,39.34
2019-03-22T12:07:44.189Z,41.00
2019-03-22T12:12:47.801Z,40.79
2019-03-22T12:17:50.638Z,40.32
2019-03-22T12:22:53.435Z,41.13
2019-03-22T12:27:56.131Z,41.69
2019-03-22T12:32:59.070Z,40.24
2019-03-22T12:38:01.713Z,41.15
2019-03-22T12:43:04.802Z,41.79
2019-03-22T12:48:07.547Z,39.26
2019-03-22T12:53:10.313Z,40.10
2019-03-22T12:58:12.949Z,41.86
2019-03-22T13:03:15.573Z,40.02
2019-03-22T13:08:18.236Z,39.61
2019-03-22T13:13:21.165Z,39.90
2019-03-22T13:18:23.843Z,39.05
2019-03-22T13:23:26.745Z,42.50
2019-03-22T13:28:29.698Z,38.83
2019-03-22T13:33:32.390Z,40.36
2019-03-22T13:38:35.046Z,41.41
2019-03-22T13:43:37.819Z,38.49
2019-03-22T13:48:40.476Z,41.37
2019-03-22T13:53:43.257Z,40.30
2019-03-22T13:58:45.918Z,39.17
2019-03-22T14:03:48.553Z,39.45
2019-03-22T14:08:51.209Z,38.52
2019-03-22T14:13:53.827Z,37.91
2019-03-22T14:18:56.380Z,37.83
2019-03-22T14:23:59.123Z,37.73
2019-03-22T14:29:01.794Z,37.68
2019-03-22T14:34:04.431Z,33.48
2019-03-22T14:39:07.748Z,34.30
2019-03-22T14:44:10.400Z,32.30
2019-03-22T14:49:13.150Z,32.09
2019-03-22T14:54:15.767Z,32.53
2019-03-22T14:59:18.489Z,33.64
2019-03-22T15:04:21.161Z,31.57
2019-03-22T15:09:23.767Z,27.48
2019-03-22T15:14:41.127Z,29.43
2019-03-22T15:20:01.778Z,30.23
2019-03-22T15:25:36.859Z,29.49
2019-03-22T15:30:58.060Z,30.82
2019-03-22T15:36:18.558Z,30.33
2019-03-22T15:41:21.275Z,30.88
2019-03-22T15:46:23.946Z,31.77
2019-03-22T15:51:26.853Z,31.30
2019-03-22T15:56:29.579Z,31.35
2019-03-22T16:01:32.347Z,32.22
2019-03-22T16:06:34.958Z,32.50
2019-03-22T16:11:37.567Z,32.68
2019-03-22T16:16:42.011Z,32.74
2019-03-22T16:21:44.642Z,34.11
2019-03-22T16:26:47.371Z,34.05
2019-03-22T16:31:50.328Z,32.94
2019-03-22T16:36:53.074Z,34.61
2019-03-22T16:41:55.723Z,34.64
2019-03-22T16:46:58.458Z,34.73
2019-03-22T16:52:01.245Z,35.54
2019-03-22T16:57:03.902Z,35.35
2019-03-22T17:02:06.558Z,35.65
2019-03-22T17:07:09.290Z,36.45
2019-03-22T17:12:12.036Z,37.18
2019-03-22T17:17:14.692Z,36.60
2019-03-22T17:22:17.339Z,37.40
2019-03-22T17:27:19.931Z,37.48
2019-03-22T17:32:22.794Z,37.87
2019-03-22T17:37:25.490Z,38.95
2019-03-22T17:42:28.209Z,39.49
2019-03-22T17:47:30.856Z,39.55
2019-03-22T17:52:34.668Z,40.17
2019-03-22T17:57:37.364Z,40.95
2019-03-22T18:02:39.977Z,41.01
2019-03-22T18:07:42.914Z,41.27
2019-03-22T18:12:45.539Z,41.63
2019-03-22T18:17:48.121Z,41.53
2019-03-22T18:22:50.969Z,41.98
2019-03-22T18:27:53.757Z,41.96
2019-03-22T18:32:56.520Z,42.45
2019-03-22T18:37:59.384Z,42.78
2019-03-22T18:43:02.112Z,42.73
2019-03-22T18:48:04.886Z,42.77
2019-03-22T18:53:07.789Z,42.05
2019-03-22T18:58:10.659Z,43.00
2019-03-22T19:03:13.318Z,43.48
2019-03-22T19:08:15.942Z,43.87
2019-03-22T19:13:18.768Z,43.96
2019-03-22T19:18:21.521Z,44.24
2019-03-22T19:23:24.180Z,44.44
2019-03-22T19:28:26.774Z,44.19
2019-03-22T19:33:29.892Z,46.11
2019-03-22T19:38:32.500Z,45.50
2019-03-22T19:43:35.178Z,47.32
2019-03-22T19:48:37.802Z,46.42
2019-03-22T19:53:40.490Z,47.21
2019-03-22T19:58:43.289Z,48.16
2019-03-22T20:03:46.292Z,48.62
2019-03-22T20:08:48.863Z,48.83
2019-03-22T20:13:52.540Z,48.58
2019-03-22T20:18:55.187Z,47.32
2019-03-22T20:23:57.832Z,47.68
2019-03-22T20:29:00.595Z,47.87
2019-03-22T20:34:03.216Z,48.38
2019-03-22T20:39:06.406Z,48.84
2019-03-22T20:44:09.041Z,49.76
2019-03-22T20:49:11.921Z,49.72
2019-03-22T20:54:14.581Z,50.18
2019-03-22T20:59:17.250Z,50.86
2019-03-22T21:04:22.009Z,51.05
2019-03-22T21:09:24.728Z,50.81
2019-03-22T21:14:27.541Z,51.48
2019-03-22T21:19:30.354Z,51.97
2019-03-22T21:24:33.033Z,53.50
2019-03-22T21:29:43.652Z,53.67
2019-03-22T21:34:40.278Z,54.26
2019-03-22T21:39:42.944Z,53.96
2019-03-22T21:44:45.619Z,53.91
2019-03-22T21:49:48.300Z,53.91
2019-03-22T21:54:51.077Z,54.02
2019-03-22T21:59:53.699Z,55.59
2019-03-22T22:04:56.733Z,55.59
2019-03-22T22:09:59.368Z,55.27
2019-03-22T22:15:01.980Z,55.06
2019-03-22T22:20:04.846Z,54.96
2019-03-22T22:25:07.850Z,55.38
2019-03-22T22:30:10.736Z,55.83
2019-03-22T22:35:13.362Z,55.99
2019-03-22T22:40:16.081Z,56.41
2019-03-22T22:45:19.219Z,57.04
2019-03-22T22:50:22.353Z,56.70
2019-03-22T22:55:25.122Z,57.35
2019-03-22T23:00:28.440Z,57.21
2019-03-22T23:05:31.055Z,57.56
2019-03-22T23:10:33.741Z,57.91
2019-03-22T23:15:36.454Z,57.91
2019-03-22T23:20:39.111Z,58.23
2019-03-22T23:25:41.671Z,59.15
2019-03-22T23:30:44.319Z,59.40
2019-03-22T23:35:46.956Z,59.61
2019-03-22T23:40:49.629Z,60.28
2019-03-22T23:45:52.351Z,60.28
2019-03-22T23:50:54.951Z,61.48
2019-03-22T23:55:57.865Z,60.53
